Time;durP1;ratioP1;P1;durP2;ratioP2;P2;SDS_P1;SDS_P2;PMS_P1;PMS_P2;Temp;Humidity;BMP_temperature;BMP_pressure;BME280_temperature;BME280_humidity;BME280_pressure;Samples;Min_cycle;Max_cycle;Signal;HPM_P1;HPM_P2
2021/04/18 04:10:14;;;;;;;0.70;0.70;;;9.90;99.90;;;;;;5945992;23;20207;31
2021/04/18 04:12:41;;;;;;;0.88;0.88;;;9.90;99.90;;;;;;4857770;29;20253;-74
2021/04/18 04:15:08;;;;;;;0.90;0.90;;;9.80;99.90;;;;;;4859486;29;20263;-74
2021/04/18 04:17:35;;;;;;;0.80;0.80;;;9.80;99.90;;;;;;4859406;29;20209;-74
2021/04/18 04:20:03;;;;;;;0.82;0.82;;;9.80;99.90;;;;;;4859395;29;20209;-74
2021/04/18 04:22:30;;;;;;;0.80;0.80;;;9.80;99.90;;;;;;4859138;29;20229;-74
2021/04/18 04:24:58;;;;;;;0.73;0.73;;;9.60;99.90;;;;;;4859182;29;20230;-74
2021/04/18 04:27:26;;;;;;;0.85;0.85;;;9.70;99.90;;;;;;4916083;23;20239;-77
2021/04/18 04:29:56;;;;;;;0.90;0.90;;;9.50;99.90;;;;;;4915006;29;20250;-78
2021/04/18 04:32:23;;;;;;;0.93;0.93;;;9.50;99.90;;;;;;4915674;29;20207;-77
2021/04/18 04:34:51;;;;;;;0.80;0.80;;;9.20;99.90;;;;;;4919150;29;20214;-76
2021/04/18 04:37:17;;;;;;;0.82;0.82;;;9.20;99.90;;;;;;4915147;29;20286;-76
2021/04/18 04:39:44;;;;;;;0.80;0.80;;;9.40;99.90;;;;;;4915066;29;20672;-76
2021/04/18 04:42:11;;;;;;;0.90;0.90;;;9.40;99.90;;;;;;4915048;29;20215;-76
2021/04/18 04:44:39;;;;;;;0.82;0.82;;;9.30;99.90;;;;;;4915359;29;20214;-76
2021/04/18 04:47:06;;;;;;;0.80;0.80;;;9.30;99.90;;;;;;4915566;29;20307;-76
2021/04/18 04:49:33;;;;;;;0.82;0.82;;;9.40;99.90;;;;;;4918891;29;20229;-76
2021/04/18 04:52:00;;;;;;;0.70;0.70;;;9.50;99.90;;;;;;4918446;29;20202;-76
2021/04/18 04:54:27;;;;;;;0.70;0.70;;;9.50;99.90;;;;;;4918612;29;20664;-75
2021/04/18 04:56:54;;;;;;;0.80;0.80;;;9.60;99.90;;;;;;4918836;29;20230;-76
2021/04/18 04:59:20;;;;;;;0.80;0.80;;;9.60;99.90;;;;;;4918466;29;20258;-75
2021/04/18 05:01:48;;;;;;;0.80;0.80;;;9.60;99.90;;;;;;4918367;29;20207;-76
2021/04/18 05:04:15;;;;;;;0.70;0.70;;;9.60;99.90;;;;;;4918609;29;20575;-76
2021/04/18 05:06:42;;;;;;;0.80;0.80;;;9.70;99.90;;;;;;4918429;29;20258;-76
2021/04/18 05:09:09;;;;;;;0.80;0.80;;;9.70;99.90;;;;;;4918352;29;20233;-76
2021/04/18 05:11:36;;;;;;;0.60;0.60;;;9.70;99.90;;;;;;4918589;29;20207;-76
2021/04/18 05:14:03;;;;;;;0.80;0.80;;;9.70;99.90;;;;;;4918655;29;20207;-76
2021/04/18 05:16:30;;;;;;;0.90;0.90;;;9.70;99.90;;;;;;4918550;29;20314;-76
2021/04/18 05:18:58;;;;;;;0.70;0.70;;;9.70;99.90;;;;;;4918544;29;20203;-76
2021/04/18 05:21:25;;;;;;;0.85;0.85;;;9.70;99.90;;;;;;4918437;29;20299;-76
2021/04/18 05:23:53;;;;;;;0.70;0.70;;;9.70;99.90;;;;;;4919257;29;20274;-76
2021/04/18 05:26:20;;;;;;;0.90;0.90;;;9.60;99.90;;;;;;4918361;29;20238;-76
2021/04/18 05:28:47;;;;;;;0.80;0.80;;;9.70;99.90;;;;;;4926017;29;20254;-77
2021/04/18 05:31:14;;;;;;;0.80;0.80;;;10.60;99.90;;;;;;4927396;29;20207;-77
2021/04/18 05:33:41;;;;;;;0.80;0.80;;;9.70;99.90;;;;;;4929802;29;20213;-78
2021/04/18 05:36:11;;;;;;;0.98;0.98;;;9.70;99.90;;;;;;4925888;29;20294;-78
2021/04/18 05:38:38;;;;;;;0.73;0.73;;;9.70;99.90;;;;;;4922334;29;20297;-77
2021/04/18 05:41:05;;;;;;;0.68;0.68;;;9.80;99.90;;;;;;4921538;29;20222;-77
2021/04/18 05:43:32;;;;;;;0.70;0.70;;;9.90;99.90;;;;;;4922136;29;20246;-76
2021/04/18 05:46:00;;;;;;;0.70;0.70;;;9.90;99.90;;;;;;4922018;29;20223;-76
2021/04/18 05:48:27;;;;;;;0.80;0.80;;;9.90;99.90;;;;;;4918149;29;20234;-76
2021/04/18 05:50:54;;;;;;;0.90;0.90;;;9.90;99.90;;;;;;4918033;29;20297;-76
2021/04/18 05:53:22;;;;;;;0.70;0.70;;;10.10;99.90;;;;;;4917515;29;20202;-76
2021/04/18 05:55:49;;;;;;;0.80;0.80;;;10.20;99.90;;;;;;4918015;29;20230;-76
2021/04/18 05:58:16;;;;;;;0.80;0.80;;;10.30;99.90;;;;;;4921156;29;20270;-76
2021/04/18 06:00:43;;;;;;;0.70;0.70;;;10.40;99.90;;;;;;4928272;29;20736;-78
2021/04/18 06:03:10;;;;;;;0.82;0.82;;;10.30;99.90;;;;;;4924694;29;20220;-76
2021/04/18 06:05:38;;;;;;;0.90;0.90;;;10.30;99.90;;;;;;4916359;29;20202;-77
2021/04/18 06:08:06;;;;;;;0.80;0.80;;;10.10;99.90;;;;;;4913709;29;20569;-76
2021/04/18 06:10:34;;;;;;;0.80;0.80;;;10.10;99.90;;;;;;4917211;29;20222;-76
2021/04/18 06:13:01;;;;;;;0.70;0.70;;;10.40;99.90;;;;;;4918267;29;20207;-76
2021/04/18 06:15:28;;;;;;;0.90;0.90;;;10.50;99.90;;;;;;4918213;29;20206;-77
2021/04/18 06:17:55;;;;;;;0.70;0.70;;;10.70;99.90;;;;;;4916010;29;20218;-77
2021/04/18 06:20:22;;;;;;;0.80;0.80;;;10.50;99.90;;;;;;4917217;29;20213;-78
2021/04/18 06:22:49;;;;;;;0.80;0.80;;;10.50;99.90;;;;;;4919550;29;20203;-78
2021/04/18 06:25:16;;;;;;;0.80;0.80;;;10.20;99.90;;;;;;4922184;29;20607;-77
2021/04/18 06:27:44;;;;;;;0.85;0.85;;;10.00;99.90;;;;;;4916989;29;20241;-76
2021/04/18 06:30:13;;;;;;;0.80;0.80;;;10.00;99.90;;;;;;4920560;29;20215;-74
2021/04/18 06:32:40;;;;;;;0.80;0.80;;;9.80;99.90;;;;;;4917843;29;20207;-77
2021/04/18 06:35:09;;;;;;;0.88;0.88;;;9.80;99.90;;;;;;4928205;29;20304;-77
2021/04/18 06:37:36;;;;;;;0.80;0.80;;;9.80;99.90;;;;;;4925346;29;20641;-77
2021/04/18 06:40:04;;;;;;;0.88;0.88;;;9.90;99.90;;;;;;4917585;29;20262;-77
2021/04/18 06:42:35;;;;;;;0.80;0.80;;;9.80;99.90;;;;;;4917905;29;20631;-75
2021/04/18 06:45:04;;;;;;;0.80;0.80;;;9.80;99.90;;;;;;4916180;29;20210;-76
2021/04/18 06:47:31;;;;;;;0.80;0.80;;;9.90;99.90;;;;;;4917839;29;20214;-79
2021/04/18 06:50:00;;;;;;;0.90;0.90;;;10.10;99.90;;;;;;4920929;29;20303;-79
2021/04/18 06:52:31;;;;;;;0.70;0.70;;;10.10;99.90;;;;;;4914451;29;20583;-78
2021/04/18 06:54:59;;;;;;;0.77;0.77;;;10.00;99.90;;;;;;4917821;29;20207;-78
2021/04/18 06:57:25;;;;;;;0.88;0.88;;;10.30;99.90;;;;;;4918403;29;20258;-80
2021/04/18 06:59:52;;;;;;;0.80;0.80;;;10.40;99.90;;;;;;4917762;29;20639;-80
2021/04/18 07:02:25;;;;;;;0.70;0.70;;;10.40;99.90;;;;;;4917835;29;20210;-80
2021/04/18 07:04:58;;;;;;;0.70;0.70;;;10.60;99.90;;;;;;4917824;29;20233;-79
2021/04/18 07:07:29;;;;;;;0.90;0.90;;;10.80;99.90;;;;;;4914806;29;20309;-74
2021/04/18 07:09:57;;;;;;;0.80;0.80;;;10.80;99.90;;;;;;4917945;29;20226;-79
2021/04/18 07:12:29;;;;;;;0.80;0.80;;;11.10;99.90;;;;;;4919455;29;20481;-77
2021/04/18 07:14:56;;;;;;;0.70;0.70;;;11.40;99.90;;;;;;4920182;29;20221;-78
2021/04/18 07:17:25;;;;;;;0.70;0.70;;;11.50;99.90;;;;;;4918884;29;20219;-78
2021/04/18 07:20:07;;;;;;;0.63;0.63;;;11.60;99.90;;;;;;4921299;29;20199;-79
2021/04/18 07:22:38;;;;;;;0.90;0.90;;;11.50;99.90;;;;;;4920364;29;20198;-78
2021/04/18 07:25:07;;;;;;;0.80;0.80;;;11.30;99.90;;;;;;4921613;29;20716;-81
2021/04/18 07:27:45;;;;;;;0.80;0.80;;;11.20;99.90;;;;;;4921246;29;20671;-80
2021/04/18 07:30:14;;;;;;;0.90;0.90;;;11.40;99.90;;;;;;4921350;29;20231;-80
2021/04/18 07:32:43;;;;;;;0.75;0.75;;;11.40;99.90;;;;;;4920369;29;20195;-80
2021/04/18 07:35:30;;;;;;;0.70;0.70;;;11.40;99.90;;;;;;4921993;29;20645;-81
2021/04/18 07:38:13;;;;;;;0.70;0.70;;;11.10;99.90;;;;;;4921393;29;20210;-80
2021/04/18 07:40:40;;;;;;;0.70;0.70;;;11.40;99.90;;;;;;4920842;29;20194;-80
2021/04/18 07:43:08;;;;;;;0.77;0.77;;;11.50;99.90;;;;;;4918298;29;20231;-80
2021/04/18 07:45:36;;;;;;;0.70;0.70;;;11.80;99.90;;;;;;4921575;29;20207;-81
2021/04/18 07:48:09;;;;;;;0.80;0.80;;;11.70;99.90;;;;;;4916230;29;20279;-80
2021/04/18 07:50:37;;;;;;;0.65;0.65;;;12.00;99.90;;;;;;4923714;29;20222;-80
2021/04/18 07:53:05;;;;;;;0.80;0.80;;;12.30;99.90;;;;;;4925904;29;20207;-81
2021/04/18 07:55:33;;;;;;;0.70;0.70;;;12.70;99.90;;;;;;4925642;29;20206;-80
2021/04/18 07:58:01;;;;;;;0.70;0.70;;;;;;;;;;4924901;29;20202;-80
2021/04/18 08:00:28;;;;;;;0.70;0.70;;;12.70;99.90;;;;;;4918760;29;20203;-80
2021/04/18 08:02:56;;;;;;;0.68;0.68;;;12.30;99.90;;;;;;4927981;29;20210;-81
2021/04/18 08:05:26;;;;;;;0.70;0.70;;;12.20;99.90;;;;;;4930198;29;20211;-79
2021/04/18 08:07:58;;;;;;;0.65;0.65;;;12.20;99.90;;;;;;4938275;29;20202;-80
2021/04/18 08:10:27;;;;;;;0.73;0.73;;;12.10;99.90;;;;;;4930320;29;20222;-80
2021/04/18 08:13:12;;;;;;;0.88;0.88;;;11.90;99.90;;;;;;4929512;29;20394;-80
2021/04/18 08:15:41;;;;;;;0.70;0.70;;;11.90;99.90;;;;;;4927725;29;20202;-83
2021/04/18 08:18:11;;;;;;;0.70;0.70;;;11.90;99.90;;;;;;4925804;29;20257;-79
2021/04/18 08:20:41;;;;;;;0.73;0.73;;;11.90;99.90;;;;;;4928070;29;20198;-80
2021/04/18 08:23:10;;;;;;;0.60;0.60;;;11.80;99.90;;;;;;4933469;29;20210;-79
2021/04/18 08:25:58;;;;;;;0.70;0.70;;;11.30;99.90;;;;;;4936863;29;20227;-73
2021/04/18 08:28:28;;;;;;;0.70;0.70;;;11.60;99.90;;;;;;4932691;29;20253;-81
2021/04/18 08:31:04;;;;;;;0.75;0.75;;;11.90;99.90;;;;;;4927242;29;20214;-82
2021/04/18 08:33:47;;;;;;;0.60;0.60;;;11.60;99.90;;;;;;4929948;29;20194;-78
2021/04/18 08:36:17;;;;;;;0.75;0.75;;;12.20;99.90;;;;;;4925020;29;20222;-79
2021/04/18 08:38:46;;;;;;;0.80;0.80;;;12.40;99.90;;;;;;4929665;29;20191;-80
2021/04/18 08:41:16;;;;;;;0.60;0.60;;;12.30;99.90;;;;;;4927343;29;20214;-80
2021/04/18 08:43:45;;;;;;;0.70;0.70;;;12.20;99.90;;;;;;4927792;29;20203;-80
2021/04/18 08:46:13;;;;;;;0.65;0.65;;;12.40;99.90;;;;;;4923752;29;20269;-81
2021/04/18 08:48:40;;;;;;;0.70;0.70;;;12.50;99.90;;;;;;4925005;29;20211;-80
2021/04/18 08:51:10;;;;;;;0.75;0.75;;;12.50;99.90;;;;;;4929008;29;20226;-80
2021/04/18 08:53:55;;;;;;;0.70;0.70;;;12.50;99.90;;;;;;4926326;29;20213;-80
2021/04/18 08:56:22;;;;;;;0.70;0.70;;;12.40;99.90;;;;;;4924770;29;20282;-80
2021/04/18 08:58:50;;;;;;;0.70;0.70;;;12.40;99.90;;;;;;4923393;29;20202;-80
2021/04/18 09:01:18;;;;;;;0.80;0.80;;;12.40;99.90;;;;;;4923062;29;20207;-79
2021/04/18 09:04:01;;;;;;;0.73;0.73;;;12.30;99.90;;;;;;4922635;29;20211;-80
2021/04/18 09:06:33;;;;;;;0.70;0.70;;;12.20;99.90;;;;;;4922683;29;20227;-80
2021/04/18 09:09:01;;;;;;;0.70;0.70;;;12.20;99.90;;;;;;4922467;29;20213;-81
2021/04/18 09:11:35;;;;;;;0.70;0.70;;;12.60;99.90;;;;;;4921260;29;20286;-80
2021/04/18 09:14:02;;;;;;;0.60;0.60;;;12.60;99.90;;;;;;4921343;29;20254;-81
2021/04/18 09:16:32;;;;;;;0.70;0.70;;;12.70;99.90;;;;;;4927136;29;20242;-82
2021/04/18 09:19:22;;;;;;;0.70;0.70;;;12.60;99.90;;;;;;4926881;29;20218;-79
2021/04/18 09:21:53;;;;;;;0.60;0.60;;;12.60;99.90;;;;;;4921639;29;20214;-83
2021/04/18 09:24:20;;;;;;;0.70;0.70;;;12.40;99.90;;;;;;4921299;29;20202;-82
2021/04/18 09:26:57;;;;;;;0.70;0.70;;;12.30;99.90;;;;;;4923193;29;20239;-82
2021/04/18 09:32:59;;;;;;;0.70;0.70;;;12.30;99.90;;;;;;4930059;29;20194;-82
2021/04/18 09:36:02;;;;;;;0.70;0.70;;;12.20;99.90;;;;;;4933096;29;20207;-79
2021/04/18 09:38:31;;;;;;;0.80;0.80;;;12.10;99.90;;;;;;4931658;29;20214;-79
2021/04/18 09:40:59;;;;;;;0.60;0.60;;;11.90;99.90;;;;;;4935246;29;20202;-80
2021/04/18 09:43:27;;;;;;;0.70;0.70;;;11.80;99.90;;;;;;4932304;29;20198;-81
2021/04/18 09:46:03;;;;;;;0.70;0.70;;;11.80;99.90;;;;;;4930032;29;20238;-80
2021/04/18 09:48:30;;;;;;;0.70;0.70;;;11.40;99.90;;;;;;4931319;29;20202;-81
2021/04/18 09:51:09;;;;;;;0.80;0.80;;;11.50;99.90;;;;;;4930301;29;20226;-79
2021/04/18 09:53:36;;;;;;;0.60;0.60;;;11.50;99.90;;;;;;4925890;29;20195;-79
2021/04/18 09:56:06;;;;;;;0.70;0.70;;;11.60;99.90;;;;;;4924830;29;20246;-81
2021/04/18 09:58:35;;;;;;;0.70;0.70;;;11.50;99.90;;;;;;4927066;29;20214;-79
2021/04/18 10:01:04;;;;;;;0.70;0.70;;;11.40;99.90;;;;;;4923839;29;20206;-78
2021/04/18 10:03:35;;;;;;;0.75;0.75;;;11.00;99.90;;;;;;4924083;29;20241;-78
2021/04/18 10:06:04;;;;;;;0.80;0.80;;;10.80;99.90;;;;;;4925029;29;20313;-82
2021/04/18 10:08:32;;;;;;;0.80;0.80;;;10.50;99.90;;;;;;4926403;29;20235;-79
2021/04/18 10:11:17;;;;;;;0.75;0.75;;;10.30;99.90;;;;;;4924042;29;20226;-82
2021/04/18 10:13:50;;;;;;;0.90;0.90;;;10.20;99.90;;;;;;4924281;29;20217;-82
2021/04/18 10:16:22;;;;;;;0.80;0.80;;;10.10;99.90;;;;;;4930411;29;20392;-80
2021/04/18 10:19:10;;;;;;;0.70;0.70;;;10.00;99.90;;;;;;4922340;29;20680;-80
2021/04/18 10:21:38;;;;;;;0.90;0.90;;;10.10;99.90;;;;;;4920482;29;20230;-79
2021/04/18 10:24:32;;;;;;;0.75;0.75;;;10.10;99.90;;;;;;4922042;29;20390;-80
2021/04/18 10:26:59;;;;;;;0.90;0.90;;;10.10;99.90;;;;;;4916287;29;20246;-80
2021/04/18 10:29:26;;;;;;;0.82;0.82;;;10.20;99.90;;;;;;4921954;29;20294;-80
2021/04/18 10:31:54;;;;;;;0.70;0.70;;;10.30;99.90;;;;;;4924270;29;20418;-80
2021/04/18 10:34:21;;;;;;;0.93;0.93;;;10.40;99.90;;;;;;4921972;29;20584;-81
2021/04/18 10:36:49;;;;;;;0.90;0.90;;;10.30;99.90;;;;;;4922944;29;20226;-81
2021/04/18 10:39:16;;;;;;;0.90;0.90;;;10.50;99.90;;;;;;4923020;29;20211;-82
2021/04/18 10:41:43;;;;;;;0.70;0.70;;;10.60;99.90;;;;;;4925251;29;20210;-82
2021/04/18 10:44:15;;;;;;;0.60;0.60;;;10.80;99.90;;;;;;4926190;29;20592;-81
2021/04/18 10:46:42;;;;;;;0.77;0.77;;;10.80;99.90;;;;;;4921274;29;20231;-81
2021/04/18 10:49:10;;;;;;;0.70;0.70;;;10.80;99.90;;;;;;4919362;29;20234;-79
2021/04/18 10:51:37;;;;;;;0.80;0.80;;;10.80;99.90;;;;;;4919595;29;20210;-78
2021/04/18 10:54:04;;;;;;;0.80;0.80;;;10.80;99.90;;;;;;4919964;29;20206;-79
2021/04/18 10:56:31;;;;;;;0.70;0.70;;;10.80;99.90;;;;;;4921926;29;20259;-80
2021/04/18 10:58:58;;;;;;;0.98;0.98;;;10.80;99.90;;;;;;4921517;29;20633;-79
2021/04/18 11:01:26;;;;;;;0.80;0.80;;;10.80;99.90;;;;;;4920754;29;20231;-78
2021/04/18 11:03:53;;;;;;;0.80;0.80;;;10.80;99.90;;;;;;4919809;29;20214;-79
2021/04/18 11:06:22;;;;;;;0.80;0.80;;;10.90;99.90;;;;;;4921835;29;20247;-79
2021/04/18 11:08:49;;;;;;;0.80;0.80;;;10.90;99.90;;;;;;4919985;29;20202;-79
2021/04/18 11:11:16;;;;;;;0.90;0.90;;;10.90;99.90;;;;;;4920999;29;20230;-79
2021/04/18 11:13:43;;;;;;;0.73;0.73;;;11.00;99.90;;;;;;4918784;29;20364;-79
2021/04/18 11:16:10;;;;;;;0.93;0.93;;;11.00;99.90;;;;;;4921560;29;20285;-80
2021/04/18 11:18:37;;;;;;;0.80;0.80;;;11.10;99.90;;;;;;4922443;29;20230;-79
2021/04/18 11:21:05;;;;;;;0.70;0.70;;;11.30;99.90;;;;;;4922399;29;20210;-80
2021/04/18 11:23:33;;;;;;;0.75;0.75;;;11.10;99.90;;;;;;4927590;29;20207;-80
2021/04/18 11:26:00;;;;;;;0.80;0.80;;;11.30;99.90;;;;;;4926748;29;20235;-81
2021/04/18 11:28:27;;;;;;;0.70;0.70;;;11.70;99.90;;;;;;4923847;29;20206;-82
2021/04/18 11:30:54;;;;;;;0.73;0.73;;;11.50;99.90;;;;;;4923009;29;20597;-82
2021/04/18 11:33:24;;;;;;;0.85;0.85;;;11.50;99.90;;;;;;4925576;29;20257;-79
2021/04/18 11:35:52;;;;;;;0.70;0.70;;;11.50;99.90;;;;;;4928730;29;20255;-81
2021/04/18 11:38:19;;;;;;;0.70;0.70;;;11.30;99.90;;;;;;4927260;29;20203;-79
2021/04/18 11:40:47;;;;;;;0.70;0.70;;;11.30;99.90;;;;;;4924159;29;20243;-80
2021/04/18 11:43:14;;;;;;;0.70;0.70;;;11.40;99.90;;;;;;4925130;29;20216;-79
2021/04/18 11:45:41;;;;;;;0.80;0.80;;;11.50;99.90;;;;;;4928902;29;20620;-80
2021/04/18 11:48:09;;;;;;;0.70;0.70;;;11.50;99.90;;;;;;4920844;29;20207;-79
2021/04/18 11:50:36;;;;;;;0.77;0.77;;;11.70;99.90;;;;;;4912226;29;20291;-80
2021/04/18 11:53:03;;;;;;;0.77;0.77;;;11.80;99.90;;;;;;4914300;29;20490;-78
2021/04/18 11:55:30;;;;;;;0.70;0.70;;;12.40;99.90;;;;;;4909799;29;20217;-76
2021/04/18 11:57:58;;;;;;;0.70;0.70;;;12.40;99.90;;;;;;4915245;29;20202;-75
2021/04/18 12:00:25;;;;;;;0.70;0.70;;;12.40;99.90;;;;;;4913810;29;20207;-75
2021/04/18 12:02:52;;;;;;;0.65;0.65;;;12.30;99.90;;;;;;4913427;29;20207;-75
2021/04/18 12:05:19;;;;;;;0.80;0.80;;;12.40;99.90;;;;;;4913409;29;20211;-75
2021/04/18 12:07:46;;;;;;;0.70;0.70;;;12.30;99.90;;;;;;4913221;29;20289;-75
2021/04/18 12:10:14;;;;;;;0.80;0.80;;;12.00;99.90;;;;;;4913398;29;20230;-75
2021/04/18 12:12:41;;;;;;;0.70;0.70;;;12.10;99.90;;;;;;4913060;29;20610;-75
2021/04/18 12:15:11;;;;;;;0.60;0.60;;;12.20;99.90;;;;;;4913737;29;20639;-75
2021/04/18 12:17:39;;;;;;;0.70;0.70;;;12.20;99.90;;;;;;4914937;29;20226;-75
2021/04/18 12:20:08;;;;;;;0.65;0.65;;;12.30;99.90;;;;;;4914777;29;20672;-75
2021/04/18 12:22:35;;;;;;;0.80;0.80;;;12.10;99.90;;;;;;4914653;29;20356;-75
2021/04/18 12:25:03;;;;;;;0.52;0.52;;;12.00;99.90;;;;;;4915173;29;20207;-75
2021/04/18 12:27:30;;;;;;;0.80;0.80;;;12.00;99.90;;;;;;4914925;29;20234;-75
2021/04/18 12:29:57;;;;;;;0.80;0.80;;;12.00;99.90;;;;;;4915083;29;20234;-75
2021/04/18 12:32:25;;;;;;;0.80;0.80;;;11.90;99.90;;;;;;4914699;29;20206;-75
2021/04/18 12:34:52;;;;;;;0.77;0.77;;;11.90;99.90;;;;;;4914613;29;20634;-75
2021/04/18 12:37:19;;;;;;;0.70;0.70;;;11.90;99.90;;;;;;4914817;29;20230;-75
2021/04/18 12:39:46;;;;;;;0.75;0.75;;;11.80;99.90;;;;;;4914783;29;20707;-75
2021/04/18 12:42:13;;;;;;;0.70;0.70;;;11.90;99.90;;;;;;4914451;29;20262;-74
2021/04/18 12:44:40;;;;;;;0.77;0.77;;;11.90;99.90;;;;;;4914471;29;20211;-75
2021/04/18 12:47:12;;;;;;;0.70;0.70;;;12.10;99.90;;;;;;4914474;29;20230;-71
2021/04/18 12:49:41;;;;;;;0.70;0.70;;;12.10;99.90;;;;;;4914696;29;20239;-70
2021/04/18 12:52:10;;;;;;;0.60;0.60;;;11.80;99.90;;;;;;4914354;29;20242;-71
2021/04/18 12:54:37;;;;;;;0.70;0.70;;;11.90;99.90;;;;;;4914721;29;20285;-70
2021/04/18 12:57:05;;;;;;;0.70;0.70;;;12.00;99.90;;;;;;4914301;29;20723;-76
2021/04/18 12:59:32;;;;;;;0.80;0.80;;;12.10;99.90;;;;;;4914468;29;20664;-74
2021/04/18 13:01:59;;;;;;;0.70;0.70;;;11.90;99.90;;;;;;4914245;29;20210;-74
2021/04/18 13:04:27;;;;;;;0.68;0.68;;;12.00;99.90;;;;;;4917161;29;20266;-78
2021/04/18 13:06:54;;;;;;;0.70;0.70;;;12.30;99.90;;;;;;4918582;29;20282;-79
2021/04/18 13:09:21;;;;;;;0.68;0.68;;;12.70;99.90;;;;;;4916679;29;20282;-75
2021/04/18 13:11:48;;;;;;;0.70;0.70;;;12.60;99.90;;;;;;4917813;29;20306;-75
2021/04/18 13:14:15;;;;;;;0.60;0.60;;;12.80;99.90;;;;;;4917668;29;20211;-75
2021/04/18 13:16:42;;;;;;;0.60;0.60;;;12.80;99.90;;;;;;4917719;29;20297;-76
2021/04/18 13:19:09;;;;;;;0.70;0.70;;;12.90;99.90;;;;;;4917697;29;20626;-74
2021/04/18 13:21:36;;;;;;;0.60;0.60;;;13.10;99.90;;;;;;4917553;29;20202;-74
2021/04/18 13:24:05;;;;;;;0.70;0.70;;;;;;;;;;4917758;29;20340;-73
2021/04/18 13:26:32;;;;;;;0.73;0.73;;;13.60;99.90;;;;;;4917585;29;20297;-74
2021/04/18 13:28:59;;;;;;;0.60;0.60;;;13.50;99.90;;;;;;4918218;29;20203;-74
2021/04/18 13:31:26;;;;;;;0.60;0.60;;;13.60;99.90;;;;;;4917443;29;20277;-73
2021/04/18 13:33:53;;;;;;;0.60;0.60;;;13.60;99.90;;;;;;4917350;29;20211;-74
2021/04/18 13:36:20;;;;;;;0.70;0.70;;;12.90;99.90;;;;;;4917379;29;20226;-74
2021/04/18 13:38:47;;;;;;;0.50;0.50;;;12.90;99.90;;;;;;4917594;29;20214;-73
2021/04/18 13:41:14;;;;;;;0.60;0.60;;;13.00;99.90;;;;;;4917308;29;20207;-73
2021/04/18 13:43:41;;;;;;;0.60;0.60;;;12.90;99.90;;;;;;4917203;29;20341;-74
2021/04/18 13:46:09;;;;;;;0.65;0.65;;;13.00;99.90;;;;;;4917598;29;20226;-73
2021/04/18 13:48:36;;;;;;;0.60;0.60;;;13.10;99.90;;;;;;4917451;29;20213;-74
2021/04/18 13:51:04;;;;;;;0.60;0.60;;;13.00;99.90;;;;;;4916965;29;20317;-73
2021/04/18 13:53:30;;;;;;;0.60;0.60;;;12.90;99.90;;;;;;4917135;29;20266;-74
2021/04/18 13:55:58;;;;;;;0.60;0.60;;;13.00;99.90;;;;;;4918683;29;20282;-74
2021/04/18 13:58:26;;;;;;;0.70;0.70;;;13.10;99.90;;;;;;4918526;29;20265;-78
2021/04/18 14:00:53;;;;;;;0.60;0.60;;;13.20;99.90;;;;;;4914198;29;20195;-72
2021/04/18 14:03:29;;;;;;;0.60;0.60;;;12.90;99.90;;;;;;4918603;29;20234;-78
2021/04/18 14:05:56;;;;;;;0.60;0.60;;;12.90;99.90;;;;;;4923475;29;20257;-80
2021/04/18 14:08:24;;;;;;;0.60;0.60;;;13.10;99.90;;;;;;4922525;29;20583;-80
2021/04/18 14:10:51;;;;;;;0.50;0.50;;;13.20;99.90;;;;;;4923079;29;20235;-80
2021/04/18 14:13:18;;;;;;;0.60;0.60;;;13.30;99.90;;;;;;4922446;29;20229;-78
2021/04/18 14:15:46;;;;;;;0.60;0.60;;;13.50;99.90;;;;;;4922862;29;20207;-80
2021/04/18 14:18:12;;;;;;;0.50;0.50;;;13.60;99.90;;;;;;4930001;29;20679;-79
2021/04/18 14:20:40;;;;;;;0.50;0.50;;;13.70;99.90;;;;;;4928881;29;20200;-78
2021/04/18 14:23:06;;;;;;;0.60;0.60;;;13.30;99.90;;;;;;4931167;29;20262;-80
2021/04/18 14:25:34;;;;;;;0.60;0.60;;;13.30;99.90;;;;;;4932349;29;20221;-78
2021/04/18 14:28:01;;;;;;;0.60;0.60;;;13.30;99.90;;;;;;4933414;29;20231;-80
2021/04/18 14:30:27;;;;;;;0.50;0.50;;;13.80;99.90;;;;;;4930053;29;20226;-81
2021/04/18 14:32:55;;;;;;;0.60;0.60;;;13.30;99.90;;;;;;4926927;29;20724;-77
2021/04/18 14:35:22;;;;;;;0.60;0.60;;;13.20;99.90;;;;;;4940343;29;20195;-77
2021/04/18 14:37:49;;;;;;;0.70;0.70;;;13.00;99.90;;;;;;4940724;29;20206;-77
2021/04/18 14:40:16;;;;;;;0.60;0.60;;;13.10;99.90;;;;;;4940334;29;20214;-78
2021/04/18 14:42:43;;;;;;;0.70;0.70;;;13.10;99.90;;;;;;4940258;29;20239;-79
2021/04/18 14:45:11;;;;;;;0.60;0.60;;;13.10;99.90;;;;;;4925920;29;20218;-79
2021/04/18 14:47:38;;;;;;;0.60;0.60;;;13.10;99.90;;;;;;4924208;29;20635;-78
2021/04/18 14:50:07;;;;;;;0.60;0.60;;;13.20;99.90;;;;;;4919972;29;20293;-77
2021/04/18 14:52:34;;;;;;;0.65;0.65;;;13.20;99.90;;;;;;4916338;29;20680;-75
2021/04/18 14:55:02;;;;;;;0.50;0.50;;;13.20;99.90;;;;;;4916743;29;20564;-76
2021/04/18 14:57:29;;;;;;;0.60;0.60;;;13.10;99.90;;;;;;4916362;29;20712;-76
2021/04/18 14:59:56;;;;;;;0.63;0.63;;;13.20;99.90;;;;;;4921598;29;20206;-81
2021/04/18 15:02:23;;;;;;;0.60;0.60;;;13.30;99.90;;;;;;4927354;29;20210;-79
2021/04/18 15:04:50;;;;;;;0.60;0.60;;;13.50;99.90;;;;;;4930793;29;20211;-79
2021/04/18 15:07:18;;;;;;;0.60;0.60;;;13.60;99.90;;;;;;4929586;29;20233;-79
2021/04/18 15:09:45;;;;;;;0.57;0.57;;;13.50;99.90;;;;;;4932737;29;20234;-80
2021/04/18 15:12:12;;;;;;;0.60;0.60;;;13.60;99.90;;;;;;4916538;29;20655;-75
2021/04/18 15:14:39;;;;;;;0.60;0.60;;;13.70;99.90;;;;;;4915582;29;20211;-77
2021/04/18 15:17:05;;;;;;;0.60;0.60;;;13.60;99.90;;;;;;4918028;29;20230;-78
2021/04/18 15:19:34;;;;;;;0.60;0.60;;;13.60;99.90;;;;;;4918562;29;20294;-78
2021/04/18 15:22:01;;;;;;;0.60;0.60;;;13.60;99.90;;;;;;4918444;29;20741;-77
2021/04/18 15:24:30;;;;;;;0.50;0.50;;;13.50;99.90;;;;;;4918855;29;20202;-77
2021/04/18 15:26:57;;;;;;;0.60;0.60;;;13.50;99.90;;;;;;4919556;29;20569;-78
2021/04/18 15:29:24;;;;;;;0.60;0.60;;;13.70;99.90;;;;;;4919278;29;20213;-78
2021/04/18 15:31:52;;;;;;;0.50;0.50;;;14.10;99.90;;;;;;4927291;29;20720;-79
2021/04/18 15:34:21;;;;;;;0.60;0.60;;;14.10;99.90;;;;;;4918654;29;20222;-76
2021/04/18 15:36:47;;;;;;;0.60;0.60;;;13.50;99.90;;;;;;4916608;29;20222;-78
2021/04/18 15:39:15;;;;;;;0.60;0.60;;;13.20;99.90;;;;;;4921717;29;20195;-77
2021/04/18 15:41:43;;;;;;;0.68;0.68;;;13.00;99.90;;;;;;4920512;29;20199;-79
2021/04/18 15:44:13;;;;;;;0.60;0.60;;;12.90;99.90;;;;;;4919781;29;20537;-77
2021/04/18 15:46:42;;;;;;;0.60;0.60;;;12.20;99.90;;;;;;4920462;29;20226;-77
2021/04/18 15:49:09;;;;;;;0.60;0.60;;;12.00;99.90;;;;;;4920517;29;20206;-77
2021/04/18 15:51:38;;;;;;;0.60;0.60;;;12.40;99.90;;;;;;4921814;29;20234;-79
2021/04/18 15:54:06;;;;;;;0.60;0.60;;;12.60;99.90;;;;;;4927908;29;20206;-78
2021/04/18 15:56:33;;;;;;;0.50;0.50;;;12.80;99.90;;;;;;4924460;29;20226;-77
2021/04/18 15:59:04;;;;;;;0.60;0.60;;;12.60;99.90;;;;;;4918101;29;20553;-79
2021/04/18 16:01:32;;;;;;;0.60;0.60;;;12.60;99.90;;;;;;4917694;29;20239;-78
2021/04/18 16:04:00;;;;;;;0.50;0.50;;;12.80;99.90;;;;;;4917391;29;20210;-78
2021/04/18 16:06:27;;;;;;;0.52;0.52;;;13.20;99.90;;;;;;4916814;29;20783;-77
2021/04/18 16:08:55;;;;;;;0.60;0.60;;;13.00;99.90;;;;;;4916067;29;20210;-75
2021/04/18 16:11:25;;;;;;;0.60;0.60;;;13.10;99.90;;;;;;4914717;29;20619;-78
2021/04/18 16:13:53;;;;;;;0.60;0.60;;;13.20;99.90;;;;;;4914871;29;20580;-76
2021/04/18 16:16:22;;;;;;;0.50;0.50;;;13.20;99.90;;;;;;4916254;29;20235;-77
2021/04/18 16:18:50;;;;;;;0.60;0.60;;;13.20;99.90;;;;;;4917963;29;20203;-81
2021/04/18 16:21:18;;;;;;;0.60;0.60;;;13.00;99.90;;;;;;4919024;29;20576;-79
2021/04/18 16:23:45;;;;;;;0.70;0.70;;;12.80;99.90;;;;;;4915388;29;20219;-75
2021/04/18 16:26:12;;;;;;;0.70;0.70;;;12.40;99.90;;;;;;4919700;29;20837;-76
2021/04/18 16:28:39;;;;;;;0.70;0.70;;;12.30;99.90;;;;;;4918484;29;20297;-77
2021/04/18 16:31:06;;;;;;;0.70;0.70;;;12.10;99.90;;;;;;4909879;29;20344;-76
2021/04/18 16:33:34;;;;;;;0.73;0.73;;;12.00;99.90;;;;;;4917052;29;20207;-77
2021/04/18 16:36:04;;;;;;;0.60;0.60;;;11.70;99.90;;;;;;4916957;29;20223;-76
2021/04/18 16:38:30;;;;;;;0.70;0.70;;;11.90;99.90;;;;;;4915452;29;20435;-73
2021/04/18 16:40:57;;;;;;;0.70;0.70;;;11.80;99.90;;;;;;4914320;29;20207;-73
2021/04/18 16:43:24;;;;;;;0.70;0.70;;;11.80;99.90;;;;;;4915309;29;20203;-74
2021/04/18 16:45:54;;;;;;;0.70;0.70;;;11.80;99.90;;;;;;4918006;29;20231;-74
2021/04/18 16:48:21;;;;;;;0.70;0.70;;;11.70;99.90;;;;;;4918801;29;20217;-74
2021/04/18 16:50:50;;;;;;;0.70;0.70;;;11.60;99.90;;;;;;4918262;29;20289;-74
2021/04/18 16:53:18;;;;;;;0.70;0.70;;;11.60;99.90;;;;;;4917871;29;20214;-74
2021/04/18 16:55:44;;;;;;;0.82;0.82;;;11.60;99.90;;;;;;4917864;29;20210;-74
2021/04/18 16:58:11;;;;;;;0.70;0.70;;;11.60;99.90;;;;;;4917936;29;20238;-75
2021/04/18 17:00:38;;;;;;;0.70;0.70;;;11.60;99.90;;;;;;4917427;29;20736;-76
2021/04/18 17:03:05;;;;;;;0.60;0.60;;;11.70;99.90;;;;;;4918215;29;20651;-76
2021/04/18 17:05:39;;;;;;;0.70;0.70;;;11.70;99.90;;;;;;4917465;29;20230;-78
2021/04/18 17:08:08;;;;;;;0.70;0.70;;;11.50;99.90;;;;;;4918442;29;20230;-77